createdAt,value
2022-11-25T00:00:46.985Z,99.99
2022-11-25T00:01:47.016Z,99.99
2022-11-25T00:02:47.096Z,99.99
2022-11-25T00:03:46.948Z,99.99
2022-11-25T00:04:46.952Z,99.99
2022-11-25T00:05:46.926Z,99.99
2022-11-25T00:06:46.921Z,99.99
2022-11-25T00:07:46.987Z,99.99
2022-11-25T00:08:46.901Z,99.99
2022-11-25T00:09:46.871Z,99.99
2022-11-25T00:10:46.865Z,99.99
2022-11-25T00:11:46.840Z,99.99
2022-11-25T00:12:46.824Z,99.99
2022-11-25T00:13:46.825Z,99.99
2022-11-25T00:14:46.812Z,99.99
2022-11-25T00:15:46.796Z,99.99
2022-11-25T00:16:48.861Z,99.99
2022-11-25T00:17:46.763Z,99.99
2022-11-25T00:18:46.752Z,99.99
2022-11-25T00:19:46.740Z,99.99
2022-11-25T00:20:46.727Z,99.99
2022-11-25T00:21:46.711Z,99.99
2022-11-25T00:22:46.697Z,99.99
2022-11-25T00:23:46.715Z,99.99
2022-11-25T00:24:46.671Z,99.99
2022-11-25T00:25:46.664Z,99.99
2022-11-25T00:26:46.652Z,99.99
2022-11-25T00:27:46.641Z,99.99
2022-11-25T00:28:46.616Z,99.99
2022-11-25T00:29:46.600Z,99.99
2022-11-25T00:30:46.589Z,99.99
2022-11-25T00:31:46.623Z,99.99
2022-11-25T00:32:46.565Z,99.99
2022-11-25T00:33:46.558Z,99.99
2022-11-25T00:34:46.534Z,99.99
2022-11-25T00:35:46.533Z,99.99
2022-11-25T00:36:46.511Z,99.99
2022-11-25T00:37:46.510Z,99.99
2022-11-25T00:38:46.489Z,99.99
2022-11-25T00:39:46.505Z,99.99
2022-11-25T00:40:46.463Z,99.99
2022-11-25T00:41:46.445Z,99.99
2022-11-25T00:42:46.436Z,99.99
2022-11-25T00:43:46.425Z,99.99
2022-11-25T00:44:46.421Z,99.99
2022-11-25T00:45:46.448Z,99.99
2022-11-25T00:46:46.381Z,99.99
2022-11-25T00:47:46.371Z,99.99
2022-11-25T00:48:46.352Z,99.99
2022-11-25T00:49:46.349Z,99.99
2022-11-25T00:50:46.330Z,99.99
2022-11-25T00:51:46.313Z,99.99
2022-11-25T00:52:46.305Z,99.99
2022-11-25T00:53:46.288Z,99.99
2022-11-25T00:54:46.280Z,99.99
2022-11-25T00:55:46.283Z,99.99
2022-11-25T00:56:46.245Z,99.99
2022-11-25T00:57:46.243Z,99.99
2022-11-25T00:58:46.217Z,99.99
2022-11-25T00:59:46.219Z,99.99
2022-11-25T01:00:46.256Z,99.99
2022-11-25T01:01:46.277Z,99.99
2022-11-25T01:02:46.284Z,99.99
2022-11-25T01:03:46.160Z,99.99
2022-11-25T01:04:46.155Z,99.99
2022-11-25T01:05:46.127Z,99.99
2022-11-25T01:06:46.116Z,99.99
2022-11-25T01:07:46.206Z,99.99
2022-11-25T01:08:46.096Z,99.99
2022-11-25T01:09:46.073Z,99.99
2022-11-25T01:10:46.055Z,99.99
2022-11-25T01:11:46.077Z,99.99
2022-11-25T01:12:46.031Z,99.99
2022-11-25T01:13:46.022Z,99.99
2022-11-25T01:14:46.003Z,99.99
2022-11-25T01:15:45.994Z,99.99
2022-11-25T01:16:46.088Z,99.99
2022-11-25T01:17:45.967Z,99.99
2022-11-25T01:18:45.959Z,99.99
2022-11-25T01:19:45.935Z,99.99
2022-11-25T01:20:45.927Z,99.99
2022-11-25T01:21:45.915Z,99.99
2022-11-25T01:22:45.910Z,99.99
2022-11-25T01:23:45.891Z,99.99
2022-11-25T01:24:45.878Z,99.99
2022-11-25T01:25:45.859Z,99.99
2022-11-25T01:26:45.864Z,99.99
2022-11-25T01:27:45.858Z,99.99
2022-11-25T01:28:45.823Z,99.99
2022-11-25T01:29:45.811Z,99.99
2022-11-25T01:30:45.806Z,99.99
2022-11-25T01:31:45.874Z,99.99
2022-11-25T01:32:45.773Z,99.99
2022-11-25T01:33:45.773Z,99.99
2022-11-25T01:34:45.748Z,99.99
2022-11-25T01:35:45.743Z,99.99
2022-11-25T01:36:45.721Z,99.99
2022-11-25T01:37:45.713Z,99.99
2022-11-25T01:38:45.695Z,99.99
2022-11-25T01:39:45.689Z,99.99
2022-11-25T01:40:45.675Z,99.99
2022-11-25T01:41:45.662Z,99.99
2022-11-25T01:42:45.658Z,99.99
2022-11-25T01:43:45.664Z,99.99
2022-11-25T01:44:45.627Z,99.99
2022-11-25T01:45:45.650Z,99.99
2022-11-25T01:46:45.595Z,99.99
2022-11-25T01:47:45.589Z,99.99
2022-11-25T01:48:45.575Z,99.99
2022-11-25T01:49:45.560Z,99.99
2022-11-25T01:50:45.550Z,99.99
2022-11-25T01:51:45.531Z,99.99
2022-11-25T01:52:45.521Z,99.99
2022-11-25T01:53:45.515Z,99.99
2022-11-25T01:54:45.496Z,99.99
2022-11-25T01:55:45.486Z,99.99
2022-11-25T01:56:45.475Z,99.99
2022-11-25T01:57:45.464Z,99.99
2022-11-25T01:58:45.443Z,99.99
2022-11-25T01:59:45.464Z,99.99
2022-11-25T02:00:45.458Z,99.99
2022-11-25T02:01:45.490Z,99.99
2022-11-25T02:02:45.480Z,99.99
2022-11-25T02:03:45.386Z,99.99
2022-11-25T02:04:45.375Z,99.99
2022-11-25T02:05:45.357Z,99.99
2022-11-25T02:06:45.343Z,99.99
2022-11-25T02:07:45.417Z,99.99
2022-11-25T02:08:45.323Z,99.99
2022-11-25T02:09:45.303Z,99.99
2022-11-25T02:10:45.297Z,99.99
2022-11-25T02:11:45.278Z,99.99
2022-11-25T02:12:45.265Z,99.99
2022-11-25T02:13:45.261Z,99.99
2022-11-25T02:14:45.245Z,99.99
2022-11-25T02:15:45.259Z,99.99
2022-11-25T02:16:45.268Z,99.99
2022-11-25T02:17:45.201Z,99.99
2022-11-25T02:18:45.192Z,99.99
2022-11-25T02:19:45.176Z,99.99
2022-11-25T02:20:45.166Z,99.99
2022-11-25T02:21:45.161Z,99.99
2022-11-25T02:22:45.140Z,99.99
2022-11-25T02:23:45.128Z,99.99
2022-11-25T02:24:45.113Z,99.99
2022-11-25T02:25:45.101Z,99.99
2022-11-25T02:26:45.088Z,99.99
2022-11-25T02:27:45.076Z,99.99
2022-11-25T02:28:45.074Z,99.99
2022-11-25T02:29:45.058Z,99.99
2022-11-25T02:30:45.039Z,99.99
2022-11-25T02:31:45.098Z,99.99
2022-11-25T02:32:45.014Z,99.99
2022-11-25T02:33:45.008Z,99.99
2022-11-25T02:34:44.999Z,99.99
2022-11-25T02:35:44.989Z,99.99
2022-11-25T02:36:44.969Z,99.99
2022-11-25T02:37:44.957Z,99.99
2022-11-25T02:38:44.936Z,99.99
2022-11-25T02:39:44.931Z,99.99
2022-11-25T02:40:44.932Z,99.99
2022-11-25T02:41:44.911Z,99.99
2022-11-25T02:42:44.892Z,99.99
2022-11-25T02:43:44.885Z,99.99
2022-11-25T02:44:44.868Z,99.99
2022-11-25T02:45:44.945Z,99.99
2022-11-25T02:46:44.846Z,99.99
2022-11-25T02:47:44.856Z,99.99
2022-11-25T02:49:07.846Z,99.99
2022-11-25T02:49:45.842Z,99.99
2022-11-25T02:50:44.799Z,99.99
2022-11-25T02:51:44.832Z,99.99
2022-11-25T02:52:44.777Z,99.99
2022-11-25T02:53:44.756Z,99.99
2022-11-25T02:54:44.752Z,99.99
2022-11-25T02:55:44.726Z,99.99
2022-11-25T02:56:44.718Z,99.99
2022-11-25T02:57:44.711Z,99.99
2022-11-25T02:58:44.703Z,99.99
2022-11-25T02:59:44.679Z,99.99
2022-11-25T03:00:44.725Z,99.99
2022-11-25T03:01:44.730Z,99.99
2022-11-25T03:02:44.696Z,99.99
2022-11-25T03:03:44.662Z,99.99
2022-11-25T03:04:44.620Z,99.99
2022-11-25T03:05:44.612Z,99.99
2022-11-25T03:06:44.599Z,99.99
2022-11-25T03:07:44.715Z,99.99
2022-11-25T03:08:44.577Z,99.99
2022-11-25T03:09:44.565Z,99.99
2022-11-25T03:10:44.546Z,99.99
2022-11-25T03:11:44.532Z,99.99
2022-11-25T03:12:44.529Z,99.99
2022-11-25T03:13:44.518Z,99.99
2022-11-25T03:14:44.500Z,99.99
2022-11-25T03:15:44.481Z,99.99
2022-11-25T03:16:44.595Z,99.99
2022-11-25T03:17:44.459Z,99.99
2022-11-25T03:18:44.453Z,99.99
2022-11-25T03:19:44.467Z,99.99
2022-11-25T03:20:44.420Z,99.99
2022-11-25T03:21:44.408Z,99.99
2022-11-25T03:22:44.404Z,99.99
2022-11-25T03:23:44.388Z,99.99
2022-11-25T03:24:44.379Z,99.99
2022-11-25T03:25:44.359Z,99.99
2022-11-25T03:26:44.355Z,99.99
2022-11-25T03:27:44.343Z,99.99
2022-11-25T03:28:44.330Z,99.99
2022-11-25T03:29:44.319Z,99.99
2022-11-25T03:30:44.295Z,99.99
2022-11-25T03:31:44.416Z,99.99
2022-11-25T03:32:44.293Z,99.99
2022-11-25T03:33:44.266Z,99.99
2022-11-25T03:34:44.246Z,99.99
2022-11-25T03:35:44.268Z,99.99
2022-11-25T03:36:44.320Z,99.99
2022-11-25T03:37:44.211Z,99.99
2022-11-25T03:38:44.202Z,99.99
2022-11-25T03:39:44.188Z,99.99
2022-11-25T03:40:44.178Z,99.99
2022-11-25T03:41:44.170Z,99.99
2022-11-25T03:42:44.152Z,99.99
2022-11-25T03:43:44.148Z,99.99
2022-11-25T03:44:44.123Z,99.99
2022-11-25T03:45:44.189Z,99.99
2022-11-25T03:46:44.119Z,99.99
2022-11-25T03:47:44.103Z,99.99
2022-11-25T03:48:44.081Z,99.99
2022-11-25T03:49:44.060Z,99.99
2022-11-25T03:50:44.055Z,99.99
2022-11-25T03:51:44.116Z,99.99
2022-11-25T03:52:44.050Z,99.99
2022-11-25T03:53:44.009Z,99.99
2022-11-25T03:54:44.009Z,99.99
2022-11-25T03:55:43.985Z,99.99
2022-11-25T03:56:43.977Z,99.99
2022-11-25T03:57:43.969Z,99.99
2022-11-25T03:58:43.953Z,99.99
2022-11-25T03:59:43.943Z,99.99
2022-11-25T04:00:43.920Z,99.99
2022-11-25T04:01:44.572Z,99.99
2022-11-25T04:02:43.957Z,99.99
2022-11-25T04:03:43.887Z,99.99
2022-11-25T04:04:43.878Z,99.99
2022-11-25T04:05:43.859Z,99.99
2022-11-25T04:06:43.854Z,99.99
2022-11-25T04:07:43.941Z,99.99
2022-11-25T04:08:43.832Z,99.99
2022-11-25T04:09:43.814Z,99.99
2022-11-25T04:10:43.812Z,99.99
2022-11-25T04:11:43.785Z,99.99
2022-11-25T04:12:43.775Z,99.99
2022-11-25T04:13:43.762Z,99.99
2022-11-25T04:14:43.750Z,99.99
2022-11-25T04:15:43.734Z,99.99
2022-11-25T04:16:43.806Z,99.99
2022-11-25T04:17:43.718Z,99.99
2022-11-25T04:18:43.694Z,99.99
2022-11-25T04:19:43.690Z,99.99
2022-11-25T04:20:43.673Z,99.99
2022-11-25T04:21:47.951Z,99.99
2022-11-25T04:22:44.692Z,99.99
2022-11-25T04:23:43.655Z,99.99
2022-11-25T04:24:43.618Z,99.99
2022-11-25T04:25:43.614Z,99.99
2022-11-25T04:26:43.594Z,99.99
2022-11-25T04:27:43.588Z,99.99
2022-11-25T04:28:43.576Z,99.99
2022-11-25T04:29:43.566Z,99.99
2022-11-25T04:30:43.619Z,99.99
2022-11-25T04:31:43.538Z,99.99
2022-11-25T04:32:43.524Z,99.99
2022-11-25T04:33:46.049Z,99.99
2022-11-25T04:34:44.543Z,99.99
2022-11-25T04:35:43.482Z,99.99
2022-11-25T04:36:43.471Z,99.99
2022-11-25T04:37:43.464Z,99.99
2022-11-25T04:38:43.459Z,99.99
2022-11-25T04:39:43.455Z,99.99
2022-11-25T04:40:43.425Z,99.99
2022-11-25T04:41:43.411Z,99.99
2022-11-25T04:42:43.395Z,99.99
2022-11-25T04:43:43.385Z,99.99
2022-11-25T04:44:52.092Z,99.99
2022-11-25T04:46:12.435Z,99.99
2022-11-25T04:46:43.424Z,99.99
2022-11-25T04:47:43.342Z,99.99
2022-11-25T04:48:43.332Z,99.99
2022-11-25T04:49:43.308Z,99.99
2022-11-25T04:50:43.296Z,99.99
2022-11-25T04:51:43.296Z,99.99
2022-11-25T04:52:43.281Z,99.99
2022-11-25T04:53:43.259Z,99.99
2022-11-25T04:54:43.244Z,99.99
2022-11-25T04:55:43.260Z,99.99
2022-11-25T04:56:43.223Z,99.99
2022-11-25T04:57:43.231Z,99.99
2022-11-25T04:58:43.194Z,99.99
2022-11-25T04:59:43.196Z,99.99
2022-11-25T05:00:43.172Z,99.99
2022-11-25T05:01:43.299Z,99.99
2022-11-25T05:02:43.284Z,99.99
2022-11-25T05:03:48.797Z,99.99
2022-11-25T05:04:44.179Z,99.99
2022-11-25T05:05:43.118Z,99.99
2022-11-25T05:06:43.105Z,99.99
2022-11-25T05:07:43.150Z,99.99
2022-11-25T05:08:43.076Z,99.99
2022-11-25T05:09:43.060Z,99.99
2022-11-25T05:10:43.060Z,99.99
2022-11-25T05:11:43.067Z,99.99
2022-11-25T05:12:43.039Z,99.99
2022-11-25T05:13:43.017Z,99.99
2022-11-25T05:14:42.999Z,99.99
2022-11-25T05:15:43.001Z,99.99
2022-11-25T05:16:43.058Z,99.99
2022-11-25T05:17:42.961Z,99.99
2022-11-25T05:18:42.951Z,99.99
2022-11-25T05:19:42.938Z,99.99
2022-11-25T05:20:42.934Z,99.99
2022-11-25T05:21:42.911Z,99.99
2022-11-25T05:22:42.909Z,99.99
2022-11-25T05:23:42.889Z,99.99
2022-11-25T05:24:42.876Z,99.99
2022-11-25T05:25:42.869Z,99.99
2022-11-25T05:26:42.860Z,99.99
2022-11-25T05:27:42.870Z,99.99
2022-11-25T05:28:42.828Z,99.99
2022-11-25T05:29:42.825Z,99.99
2022-11-25T05:30:42.852Z,99.99
2022-11-25T05:31:42.808Z,99.99
2022-11-25T05:32:42.780Z,99.99
2022-11-25T05:33:42.765Z,99.99
2022-11-25T05:34:42.756Z,99.99
2022-11-25T05:35:42.747Z,99.99
2022-11-25T05:36:42.738Z,99.99
2022-11-25T05:37:42.713Z,99.99
2022-11-25T05:38:42.704Z,99.99
2022-11-25T05:39:42.686Z,99.99
2022-11-25T05:40:42.675Z,99.99
2022-11-25T05:41:42.686Z,99.99
2022-11-25T05:42:42.661Z,99.99
2022-11-25T05:43:42.677Z,99.99
2022-11-25T05:44:42.629Z,99.99
2022-11-25T05:45:42.665Z,99.99
2022-11-25T05:46:42.601Z,99.99
2022-11-25T05:47:42.590Z,99.99
2022-11-25T05:48:42.586Z,99.99
2022-11-25T05:49:42.568Z,99.99
2022-11-25T05:50:42.549Z,99.99
2022-11-25T05:51:42.538Z,99.99
2022-11-25T05:52:42.545Z,99.99
2022-11-25T05:53:42.515Z,99.99
2022-11-25T05:54:42.500Z,99.99
2022-11-25T05:55:42.487Z,99.99
2022-11-25T05:56:42.476Z,99.99
2022-11-25T05:57:42.468Z,99.99
2022-11-25T05:58:42.457Z,99.99
2022-11-25T05:59:42.478Z,99.99
2022-11-25T06:00:42.430Z,99.99
2022-11-25T06:01:42.413Z,99.99
2022-11-25T06:02:42.506Z,99.99
2022-11-25T06:03:42.519Z,99.99
2022-11-25T06:04:42.375Z,99.99
2022-11-25T06:05:42.365Z,99.99
2022-11-25T06:06:42.354Z,99.99
2022-11-25T06:07:42.460Z,99.99
2022-11-25T06:08:42.334Z,99.99
2022-11-25T06:09:42.319Z,99.99
2022-11-25T06:10:42.307Z,99.99
2022-11-25T06:11:42.296Z,99.99
2022-11-25T06:12:42.281Z,99.99
2022-11-25T06:13:42.269Z,99.99
2022-11-25T06:14:42.256Z,99.99
2022-11-25T06:15:42.354Z,99.99
2022-11-25T06:16:42.229Z,99.99
2022-11-25T06:17:42.213Z,99.99
2022-11-25T06:18:42.203Z,99.99
2022-11-25T06:19:42.189Z,99.99
2022-11-25T06:20:42.179Z,99.99
2022-11-25T06:21:42.160Z,99.99
2022-11-25T06:22:42.149Z,99.99
2022-11-25T06:23:42.144Z,99.99
2022-11-25T06:24:42.133Z,99.99
2022-11-25T06:25:42.123Z,99.99
2022-11-25T06:26:42.105Z,99.99
2022-11-25T06:28:04.980Z,99.99
2022-11-25T06:28:43.120Z,99.99
2022-11-25T06:29:42.064Z,99.99
2022-11-25T06:30:42.049Z,99.99
2022-11-25T06:31:42.172Z,99.99
2022-11-25T06:32:42.031Z,99.99
2022-11-25T06:33:42.017Z,99.99
2022-11-25T06:34:42.001Z,99.99
2022-11-25T06:35:41.989Z,99.99
2022-11-25T06:36:41.974Z,99.99
2022-11-25T06:37:41.969Z,99.99
2022-11-25T06:38:41.954Z,99.99
2022-11-25T06:39:41.935Z,99.99
2022-11-25T06:40:41.929Z,99.99
2022-11-25T06:41:41.920Z,99.99
2022-11-25T06:42:41.897Z,99.99
2022-11-25T06:43:41.894Z,99.99
2022-11-25T06:44:41.876Z,99.99
2022-11-25T06:45:41.863Z,99.99
2022-11-25T06:46:41.937Z,99.99
2022-11-25T06:47:41.864Z,99.99
2022-11-25T06:48:41.831Z,99.99
2022-11-25T06:49:41.811Z,99.99
2022-11-25T06:50:41.807Z,99.99
2022-11-25T06:51:41.785Z,99.99
2022-11-25T06:52:41.770Z,99.99
2022-11-25T06:53:41.763Z,99.99
2022-11-25T06:54:41.751Z,99.99
2022-11-25T06:55:41.738Z,99.99
2022-11-25T06:56:41.728Z,99.99
2022-11-25T06:57:41.720Z,99.99
2022-11-25T06:58:41.718Z,99.99
2022-11-25T06:59:41.691Z,99.99
2022-11-25T07:00:41.681Z,99.99
2022-11-25T07:01:41.727Z,99.99
2022-11-25T07:02:46.620Z,99.99
2022-11-25T07:03:42.701Z,99.99
2022-11-25T07:04:41.627Z,99.99
2022-11-25T07:05:41.614Z,99.99
2022-11-25T07:06:41.614Z,99.99
2022-11-25T07:07:41.661Z,99.99
2022-11-25T07:08:41.583Z,99.99
2022-11-25T07:09:41.582Z,99.99
2022-11-25T07:10:41.556Z,99.99
2022-11-25T07:11:41.534Z,99.99
2022-11-25T07:12:41.534Z,99.99
2022-11-25T07:13:41.517Z,99.99
2022-11-25T07:14:41.501Z,99.99
2022-11-25T07:15:41.585Z,99.99
2022-11-25T07:16:43.724Z,99.99
2022-11-25T07:17:41.462Z,99.99
2022-11-25T07:18:41.450Z,99.99
2022-11-25T07:19:41.468Z,99.99
2022-11-25T07:20:41.428Z,99.99
2022-11-25T07:21:41.419Z,99.99
2022-11-25T07:22:41.403Z,99.99
2022-11-25T07:23:41.391Z,99.99
2022-11-25T07:24:41.381Z,99.99
2022-11-25T07:25:41.361Z,99.99
2022-11-25T07:26:41.357Z,99.99
2022-11-25T07:27:41.338Z,99.99
2022-11-25T07:28:41.332Z,99.99
2022-11-25T07:29:58.229Z,99.99
2022-11-25T07:31:22.126Z,99.99
2022-11-25T07:31:42.314Z,99.99
2022-11-25T07:32:41.274Z,99.99
2022-11-25T07:33:41.318Z,99.99
2022-11-25T07:34:41.254Z,99.99
2022-11-25T07:35:41.265Z,99.99
2022-11-25T07:36:41.242Z,99.99
2022-11-25T07:37:41.215Z,99.99
2022-11-25T07:38:46.319Z,99.99
2022-11-25T07:39:41.188Z,99.99
2022-11-25T07:40:41.172Z,99.99
2022-11-25T07:41:41.163Z,99.99
2022-11-25T07:42:41.145Z,99.99
2022-11-25T07:43:41.134Z,99.99
2022-11-25T07:44:41.128Z,99.99
2022-11-25T07:45:41.119Z,99.99
2022-11-25T07:46:41.122Z,99.99
2022-11-25T07:47:41.097Z,99.99
2022-11-25T07:48:41.068Z,99.99
2022-11-25T07:49:41.074Z,99.99
2022-11-25T07:50:41.053Z,99.99
2022-11-25T07:51:41.063Z,99.99
2022-11-25T07:52:41.033Z,99.99
2022-11-25T07:53:41.023Z,99.99
2022-11-25T07:54:41.007Z,99.99
2022-11-25T07:55:40.985Z,99.99
2022-11-25T07:56:40.983Z,99.99
2022-11-25T07:57:40.971Z,99.99
2022-11-25T07:58:45.744Z,99.99
2022-11-25T07:59:40.940Z,99.99
2022-11-25T08:00:40.933Z,99.99
2022-11-25T08:01:41.018Z,99.99
2022-11-25T08:02:40.987Z,99.99
2022-11-25T08:03:40.895Z,99.99
2022-11-25T08:04:40.885Z,99.99
2022-11-25T08:05:40.867Z,99.99
2022-11-25T08:06:40.857Z,99.99
2022-11-25T08:07:40.935Z,99.99
2022-11-25T08:08:40.832Z,99.99
2022-11-25T08:09:40.819Z,99.99
2022-11-25T08:10:40.811Z,99.99
2022-11-25T08:11:40.804Z,99.99
2022-11-25T08:12:40.784Z,99.99
2022-11-25T08:13:40.786Z,99.99
2022-11-25T08:14:40.762Z,99.99
2022-11-25T08:15:40.795Z,99.99
2022-11-25T08:16:40.730Z,95.87
2022-11-25T08:17:40.713Z,93.14
2022-11-25T08:18:40.708Z,91.44
2022-11-25T08:19:40.684Z,90.87
2022-11-25T08:20:40.688Z,91.28
2022-11-25T08:21:40.672Z,91.28
2022-11-25T08:22:40.655Z,91.07
2022-11-25T08:23:40.660Z,90.25
2022-11-25T08:24:40.630Z,89.94
2022-11-25T08:25:40.616Z,89.94
2022-11-25T08:26:40.607Z,89.46
2022-11-25T08:27:40.688Z,90.33
2022-11-25T08:28:40.578Z,91.09
2022-11-25T08:29:40.574Z,92.49
2022-11-25T08:30:40.585Z,93.10
2022-11-25T08:31:40.592Z,93.46
2022-11-25T08:32:40.538Z,94.60
2022-11-25T08:33:40.519Z,95.26
2022-11-25T08:34:40.507Z,95.26
2022-11-25T08:35:40.498Z,95.57
2022-11-25T08:36:43.806Z,95.78
2022-11-25T08:37:41.502Z,95.89
2022-11-25T08:38:40.472Z,95.93
2022-11-25T08:39:56.443Z,96.09
2022-11-25T08:40:41.468Z,96.24
2022-11-25T08:41:40.421Z,96.45
2022-11-25T08:42:40.411Z,96.76
2022-11-25T08:43:40.387Z,97.07
2022-11-25T08:44:40.383Z,96.76
2022-11-25T08:45:40.375Z,96.86
2022-11-25T08:46:40.434Z,97.28
2022-11-25T08:47:40.349Z,97.07
2022-11-25T08:48:40.339Z,97.28
2022-11-25T08:49:41.649Z,97.69
2022-11-25T08:50:40.301Z,97.80
2022-11-25T08:51:40.289Z,97.74
2022-11-25T08:52:40.285Z,98.26
2022-11-25T08:53:40.266Z,98.63
2022-11-25T08:54:40.262Z,98.73
2022-11-25T08:55:40.267Z,98.73
2022-11-25T08:56:40.230Z,98.42
2022-11-25T08:57:40.212Z,98.42
2022-11-25T08:58:40.210Z,98.32
2022-11-25T08:59:40.427Z,98.32
2022-11-25T09:00:40.189Z,98.48
2022-11-25T09:01:40.247Z,98.48
2022-11-25T09:02:40.206Z,98.48
2022-11-25T09:03:40.140Z,98.38
2022-11-25T09:04:40.134Z,98.27
2022-11-25T09:05:40.128Z,97.86
2022-11-25T09:06:40.105Z,97.86
2022-11-25T09:07:40.209Z,98.07
2022-11-25T09:08:40.091Z,98.27
2022-11-25T09:09:40.464Z,98.17
2022-11-25T09:10:40.055Z,98.38
2022-11-25T09:11:40.145Z,98.38
2022-11-25T09:12:40.030Z,98.48
2022-11-25T09:13:40.203Z,98.54
2022-11-25T09:14:40.001Z,98.85
2022-11-25T09:15:40.064Z,98.95
2022-11-25T09:16:40.097Z,98.85
2022-11-25T09:17:40.064Z,98.95
2022-11-25T09:18:39.967Z,98.80
2022-11-25T09:19:39.947Z,98.91
2022-11-25T09:20:39.933Z,98.91
2022-11-25T09:21:39.919Z,98.80
2022-11-25T09:22:39.903Z,98.55
2022-11-25T09:23:39.892Z,98.34
2022-11-25T09:24:39.878Z,98.34
2022-11-25T09:25:39.880Z,98.34
2022-11-25T09:26:39.849Z,98.34
2022-11-25T09:27:39.865Z,98.50
2022-11-25T09:28:39.822Z,98.71
2022-11-25T09:29:40.075Z,98.92
2022-11-25T09:30:39.832Z,99.13
2022-11-25T09:31:39.831Z,99.23
2022-11-25T09:32:39.787Z,99.13
2022-11-25T09:33:39.774Z,99.23
2022-11-25T09:34:39.751Z,99.23
2022-11-25T09:35:39.734Z,99.18
2022-11-25T09:36:39.735Z,98.87
2022-11-25T09:37:39.712Z,98.77
2022-11-25T09:38:43.166Z,98.87
2022-11-25T09:39:39.854Z,98.97
2022-11-25T09:40:39.676Z,98.97
2022-11-25T09:41:39.655Z,98.93
2022-11-25T09:42:39.657Z,98.62
2022-11-25T09:43:39.670Z,98.52
2022-11-25T09:44:39.614Z,98.10
2022-11-25T09:45:39.610Z,98.21
2022-11-25T09:46:39.693Z,98.21
2022-11-25T09:47:45.192Z,98.21
2022-11-25T09:48:40.593Z,98.41
2022-11-25T09:49:39.782Z,97.79
2022-11-25T09:50:39.541Z,97.85
2022-11-25T09:51:39.534Z,97.75
2022-11-25T09:52:39.529Z,97.64
2022-11-25T09:53:39.507Z,97.44
2022-11-25T09:54:39.489Z,97.44
2022-11-25T09:55:39.479Z,97.44
2022-11-25T09:56:39.475Z,97.44
2022-11-25T09:57:39.455Z,97.64
2022-11-25T09:58:39.439Z,97.85
2022-11-25T09:59:39.655Z,98.16
2022-11-25T10:00:39.417Z,98.10
2022-11-25T10:01:39.397Z,98.52
2022-11-25T10:02:39.592Z,98.72
2022-11-25T10:03:39.438Z,98.62
2022-11-25T10:04:39.367Z,98.52
2022-11-25T10:05:39.354Z,98.62
2022-11-25T10:06:39.385Z,98.62
2022-11-25T10:07:39.325Z,98.62
2022-11-25T10:08:39.318Z,98.62
2022-11-25T10:09:39.604Z,98.93
2022-11-25T10:10:39.298Z,98.72
2022-11-25T10:11:39.279Z,98.68
2022-11-25T10:12:39.263Z,98.00
2022-11-25T10:13:39.245Z,98.27
2022-11-25T10:14:39.238Z,98.16
2022-11-25T10:15:39.309Z,97.96
2022-11-25T10:16:39.289Z,98.06
2022-11-25T10:17:39.203Z,98.01
2022-11-25T10:18:39.177Z,97.81
2022-11-25T10:19:39.386Z,98.01
2022-11-25T10:20:39.155Z,98.01
2022-11-25T10:21:39.147Z,97.76
2022-11-25T10:22:39.122Z,97.34
2022-11-25T10:23:39.106Z,96.47
2022-11-25T10:24:41.376Z,96.77
2022-11-25T10:25:39.093Z,96.83
2022-11-25T10:26:39.085Z,96.83
2022-11-25T10:27:39.057Z,96.21
2022-11-25T10:28:39.053Z,95.80
2022-11-25T10:29:39.038Z,95.86
2022-11-25T10:30:39.023Z,95.24
2022-11-25T10:31:39.090Z,95.61
2022-11-25T10:32:38.995Z,94.89
2022-11-25T10:33:38.973Z,95.09
2022-11-25T10:34:39.231Z,94.27
2022-11-25T10:35:38.953Z,93.96
2022-11-25T10:36:38.942Z,93.85
2022-11-25T10:37:38.927Z,94.52
2022-11-25T10:38:38.914Z,94.93
2022-11-25T10:39:38.897Z,94.82
2022-11-25T10:40:38.880Z,95.86
2022-11-25T10:41:38.871Z,96.37
2022-11-25T10:42:38.865Z,96.37
2022-11-25T10:43:38.853Z,95.96
2022-11-25T10:44:39.155Z,96.58
2022-11-25T10:45:38.819Z,96.48
2022-11-25T10:47:11.851Z,96.17
2022-11-25T10:47:39.888Z,96.27
2022-11-25T10:48:43.927Z,96.37
2022-11-25T10:49:38.764Z,96.37
2022-11-25T10:50:38.756Z,96.17
2022-11-25T10:51:38.746Z,96.27
2022-11-25T10:52:38.733Z,96.17
2022-11-25T10:53:38.712Z,96.17
2022-11-25T10:54:38.701Z,95.86
2022-11-25T10:55:38.688Z,95.34
2022-11-25T10:56:38.685Z,95.45
2022-11-25T10:57:38.660Z,95.45
2022-11-25T10:58:38.642Z,95.55
2022-11-25T10:59:38.628Z,95.49
2022-11-25T11:00:38.645Z,95.90
2022-11-25T11:01:38.690Z,96.62
2022-11-25T11:02:38.636Z,96.62
2022-11-25T11:03:38.612Z,96.52
2022-11-25T11:04:38.870Z,96.69
2022-11-25T11:05:42.447Z,97.09
2022-11-25T11:06:39.611Z,96.42
2022-11-25T11:07:38.702Z,96.52
2022-11-25T11:08:38.520Z,97.04
2022-11-25T11:09:38.502Z,96.94
2022-11-25T11:10:38.480Z,97.25
2022-11-25T11:11:38.470Z,97.34
2022-11-25T11:12:38.463Z,97.34
2022-11-25T11:13:38.444Z,96.62
2022-11-25T11:14:38.780Z,96.89
2022-11-25T11:15:38.415Z,97.20
2022-11-25T11:16:38.474Z,97.30
2022-11-25T11:17:38.421Z,96.89
2022-11-25T11:18:38.377Z,96.53
2022-11-25T11:19:38.392Z,95.71
2022-11-25T11:20:38.350Z,95.71
2022-11-25T11:21:38.345Z,95.50
2022-11-25T11:22:38.321Z,95.71
2022-11-25T11:23:38.315Z,95.92
2022-11-25T11:24:38.592Z,95.20
2022-11-25T11:25:38.285Z,94.37
2022-11-25T11:26:38.271Z,94.68
2022-11-25T11:27:38.260Z,95.09
2022-11-25T11:28:38.239Z,95.20
2022-11-25T11:29:38.233Z,95.50
2022-11-25T11:30:38.214Z,95.20
2022-11-25T11:31:38.240Z,95.92
2022-11-25T11:32:38.192Z,96.12
2022-11-25T11:33:38.179Z,96.12
2022-11-25T11:34:38.420Z,95.40
2022-11-25T11:35:41.789Z,95.50
2022-11-25T11:36:38.132Z,95.92
2022-11-25T11:37:38.131Z,95.30
2022-11-25T11:38:38.108Z,95.71
2022-11-25T11:39:38.090Z,96.02
2022-11-25T11:40:38.090Z,96.23
2022-11-25T11:41:38.077Z,96.02
2022-11-25T11:42:38.056Z,95.71
2022-11-25T11:43:38.055Z,95.61
2022-11-25T11:44:38.416Z,95.71
2022-11-25T11:45:38.017Z,95.92
2022-11-25T11:46:38.088Z,95.71
2022-11-25T11:47:37.990Z,95.71
2022-11-25T11:48:37.979Z,95.56
2022-11-25T11:49:37.970Z,95.77
2022-11-25T11:50:37.955Z,95.56
2022-11-25T11:51:37.961Z,95.15
2022-11-25T11:52:37.926Z,94.53
2022-11-25T11:53:37.913Z,94.12
2022-11-25T11:54:38.135Z,94.12
2022-11-25T11:55:37.885Z,94.23
2022-11-25T11:56:37.879Z,94.43
2022-11-25T11:57:37.866Z,94.12
2022-11-25T11:58:37.854Z,94.02
2022-11-25T11:59:37.837Z,94.43
2022-11-25T12:00:37.816Z,94.32
2022-11-25T12:01:37.902Z,94.84
2022-11-25T12:02:37.798Z,94.95
2022-11-25T12:03:37.849Z,95.10
2022-11-25T12:04:38.113Z,94.49
2022-11-25T12:05:37.749Z,94.59
2022-11-25T12:06:37.733Z,94.38
2022-11-25T12:07:37.874Z,94.18
2022-11-25T12:08:37.716Z,94.28
2022-11-25T12:09:37.691Z,94.59
2022-11-25T12:10:37.687Z,94.70
2022-11-25T12:11:37.675Z,94.80
2022-11-25T12:12:37.650Z,95.00
2022-11-25T12:13:37.643Z,94.90
2022-11-25T12:14:38.043Z,95.21
2022-11-25T12:15:37.622Z,95.21
2022-11-25T12:16:37.698Z,95.21
2022-11-25T12:17:37.587Z,95.21
2022-11-25T12:18:37.575Z,95.52
2022-11-25T12:19:37.574Z,95.15
2022-11-25T12:20:37.553Z,95.25
2022-11-25T12:21:41.823Z,95.25
2022-11-25T12:22:37.531Z,94.95
2022-11-25T12:23:37.538Z,95.05
2022-11-25T12:24:37.759Z,95.25
2022-11-25T12:25:37.483Z,95.25
2022-11-25T12:26:37.478Z,95.36
2022-11-25T12:27:37.470Z,95.46
2022-11-25T12:28:37.448Z,95.36
2022-11-25T12:29:37.431Z,95.50
2022-11-25T12:30:37.432Z,95.81
2022-11-25T12:31:37.515Z,95.87
2022-11-25T12:32:37.390Z,95.61
2022-11-25T12:33:37.377Z,95.71
2022-11-25T12:34:37.560Z,95.71
2022-11-25T12:35:37.346Z,95.81
2022-11-25T12:36:37.346Z,95.81
2022-11-25T12:37:37.339Z,96.02
2022-11-25T12:38:37.316Z,96.53
2022-11-25T12:39:37.331Z,96.44
2022-11-25T12:40:37.292Z,96.44
2022-11-25T12:41:37.274Z,96.12
2022-11-25T12:42:37.262Z,96.12
2022-11-25T12:43:37.249Z,96.33
2022-11-25T12:44:37.539Z,96.64
2022-11-25T12:45:37.295Z,96.64
2022-11-25T12:46:37.221Z,96.70
2022-11-25T12:47:37.202Z,96.18
2022-11-25T12:48:37.187Z,95.98
2022-11-25T12:49:37.174Z,96.39
2022-11-25T12:50:37.159Z,96.59
2022-11-25T12:51:37.150Z,96.70
2022-11-25T12:52:37.141Z,96.49